sensor_id;sensor_type;location;lat;lon;timestamp;temperature;humidity
33564;DHT22;19894;48.452;11.494;2023-04-24T00:00:32;19.00;54.10
33564;DHT22;19894;48.452;11.494;2023-04-24T00:02:58;19.10;54.10
33564;DHT22;19894;48.452;11.494;2023-04-24T00:05:24;19.00;54.10
33564;DHT22;19894;48.452;11.494;2023-04-24T00:07:50;19.00;54.10
33564;DHT22;19894;48.452;11.494;2023-04-24T00:10:19;19.10;54.00
33564;DHT22;19894;48.452;11.494;2023-04-24T00:12:45;19.10;54.00
33564;DHT22;19894;48.452;11.494;2023-04-24T00:15:11;19.10;54.10
33564;DHT22;19894;48.452;11.494;2023-04-24T00:17:37;19.10;54.00
33564;DHT22;19894;48.452;11.494;2023-04-24T00:20:03;19.10;54.00
33564;DHT22;19894;48.452;11.494;2023-04-24T00:22:30;19.10;54.00
33564;DHT22;19894;48.452;11.494;2023-04-24T00:24:56;19.10;54.30
33564;DHT22;19894;48.452;11.494;2023-04-24T00:27:22;19.10;53.80
33564;DHT22;19894;48.452;11.494;2023-04-24T00:29:48;19.10;53.80
33564;DHT22;19894;48.452;11.494;2023-04-24T00:32:14;19.10;53.80
33564;DHT22;19894;48.452;11.494;2023-04-24T00:34:40;19.10;53.80
33564;DHT22;19894;48.452;11.494;2023-04-24T00:37:06;19.10;53.80
33564;DHT22;19894;48.452;11.494;2023-04-24T00:39:32;19.10;53.80
33564;DHT22;19894;48.452;11.494;2023-04-24T00:41:57;19.10;53.80
33564;DHT22;19894;48.452;11.494;2023-04-24T00:44:23;19.00;53.70
33564;DHT22;19894;48.452;11.494;2023-04-24T00:46:49;19.10;53.90
33564;DHT22;19894;48.452;11.494;2023-04-24T00:49:20;19.00;53.60
33564;DHT22;19894;48.452;11.494;2023-04-24T00:51:46;19.00;53.50
33564;DHT22;19894;48.452;11.494;2023-04-24T00:54:13;19.00;53.50
33564;DHT22;19894;48.452;11.494;2023-04-24T00:56:39;19.00;53.40
33564;DHT22;19894;48.452;11.494;2023-04-24T00:59:04;19.00;53.50
33564;DHT22;19894;48.452;11.494;2023-04-24T01:01:30;19.00;53.50
33564;DHT22;19894;48.452;11.494;2023-04-24T01:03:57;19.00;53.60
33564;DHT22;19894;48.452;11.494;2023-04-24T01:06:23;19.00;53.70
33564;DHT22;19894;48.452;11.494;2023-04-24T01:08:52;19.00;53.70
33564;DHT22;19894;48.452;11.494;2023-04-24T01:11:18;19.00;53.70
33564;DHT22;19894;48.452;11.494;2023-04-24T01:13:43;19.00;53.60
33564;DHT22;19894;48.452;11.494;2023-04-24T01:16:10;19.00;53.60
33564;DHT22;19894;48.452;11.494;2023-04-24T01:18:36;19.10;53.60
33564;DHT22;19894;48.452;11.494;2023-04-24T01:21:03;19.10;53.60
33564;DHT22;19894;48.452;11.494;2023-04-24T01:23:29;19.10;53.60
33564;DHT22;19894;48.452;11.494;2023-04-24T01:25:55;19.10;53.60
33564;DHT22;19894;48.452;11.494;2023-04-24T01:28:21;19.10;53.50
33564;DHT22;19894;48.452;11.494;2023-04-24T01:30:47;19.10;53.40
33564;DHT22;19894;48.452;11.494;2023-04-24T01:33:13;19.10;53.40
33564;DHT22;19894;48.452;11.494;2023-04-24T01:35:39;19.10;53.40
33564;DHT22;19894;48.452;11.494;2023-04-24T01:38:05;19.10;53.40
33564;DHT22;19894;48.452;11.494;2023-04-24T01:40:31;19.10;53.40
33564;DHT22;19894;48.452;11.494;2023-04-24T01:42:58;19.10;53.40
33564;DHT22;19894;48.452;11.494;2023-04-24T01:45:24;19.00;53.20
33564;DHT22;19894;48.452;11.494;2023-04-24T01:47:50;19.00;53.20
33564;DHT22;19894;48.452;11.494;2023-04-24T01:50:16;19.00;53.20
33564;DHT22;19894;48.452;11.494;2023-04-24T01:52:41;19.00;53.10
33564;DHT22;19894;48.452;11.494;2023-04-24T01:55:07;19.00;53.10
33564;DHT22;19894;48.452;11.494;2023-04-24T01:57:33;19.00;53.00
33564;DHT22;19894;48.452;11.494;2023-04-24T02:00:00;19.00;53.00
33564;DHT22;19894;48.452;11.494;2023-04-24T02:02:25;19.00;53.50
33564;DHT22;19894;48.452;11.494;2023-04-24T02:04:56;19.00;53.00
33564;DHT22;19894;48.452;11.494;2023-04-24T02:07:21;19.00;53.10
33564;DHT22;19894;48.452;11.494;2023-04-24T02:09:47;19.00;53.20
33564;DHT22;19894;48.452;11.494;2023-04-24T02:12:13;19.00;53.20
33564;DHT22;19894;48.452;11.494;2023-04-24T02:14:39;19.00;53.10
33564;DHT22;19894;48.452;11.494;2023-04-24T02:17:04;19.10;53.10
33564;DHT22;19894;48.452;11.494;2023-04-24T02:19:30;19.10;53.10
33564;DHT22;19894;48.452;11.494;2023-04-24T02:21:56;19.10;53.10
33564;DHT22;19894;48.452;11.494;2023-04-24T02:24:21;19.10;53.10
33564;DHT22;19894;48.452;11.494;2023-04-24T02:26:47;19.10;53.10
33564;DHT22;19894;48.452;11.494;2023-04-24T02:29:13;19.10;53.10
33564;DHT22;19894;48.452;11.494;2023-04-24T02:31:38;19.10;52.90
33564;DHT22;19894;48.452;11.494;2023-04-24T02:34:04;19.10;52.80
33564;DHT22;19894;48.452;11.494;2023-04-24T02:36:29;19.10;53.30
33564;DHT22;19894;48.452;11.494;2023-04-24T02:38:55;19.10;52.70
33564;DHT22;19894;48.452;11.494;2023-04-24T02:41:21;19.00;52.60
33564;DHT22;19894;48.452;11.494;2023-04-24T02:43:46;19.00;52.60
33564;DHT22;19894;48.452;11.494;2023-04-24T02:46:12;19.00;52.50
33564;DHT22;19894;48.452;11.494;2023-04-24T02:48:37;19.00;52.50
33564;DHT22;19894;48.452;11.494;2023-04-24T02:51:03;19.00;52.50
33564;DHT22;19894;48.452;11.494;2023-04-24T02:53:29;19.00;52.50
33564;DHT22;19894;48.452;11.494;2023-04-24T02:55:56;19.00;53.00
33564;DHT22;19894;48.452;11.494;2023-04-24T02:58:21;19.00;52.40
33564;DHT22;19894;48.452;11.494;2023-04-24T03:00:47;19.00;52.40
33564;DHT22;19894;48.452;11.494;2023-04-24T03:03:13;19.00;52.30
33564;DHT22;19894;48.452;11.494;2023-04-24T03:05:39;19.00;52.30
33564;DHT22;19894;48.452;11.494;2023-04-24T03:08:04;19.00;52.40
33564;DHT22;19894;48.452;11.494;2023-04-24T03:10:30;19.00;52.30
33564;DHT22;19894;48.452;11.494;2023-04-24T03:12:56;19.00;52.40
33564;DHT22;19894;48.452;11.494;2023-04-24T03:15:21;19.00;52.40
33564;DHT22;19894;48.452;11.494;2023-04-24T03:17:47;19.00;52.40
33564;DHT22;19894;48.452;11.494;2023-04-24T03:20:13;19.00;52.40
33564;DHT22;19894;48.452;11.494;2023-04-24T03:22:38;19.00;52.30
33564;DHT22;19894;48.452;11.494;2023-04-24T03:25:04;19.00;52.30
33564;DHT22;19894;48.452;11.494;2023-04-24T03:27:30;19.00;52.30
33564;DHT22;19894;48.452;11.494;2023-04-24T03:29:56;19.10;52.30
33564;DHT22;19894;48.452;11.494;2023-04-24T03:32:22;19.00;52.30
33564;DHT22;19894;48.452;11.494;2023-04-24T03:34:48;19.00;52.20
33564;DHT22;19894;48.452;11.494;2023-04-24T03:37:15;19.00;52.20
33564;DHT22;19894;48.452;11.494;2023-04-24T03:39:41;19.10;52.20
33564;DHT22;19894;48.452;11.494;2023-04-24T03:42:06;19.10;52.10
33564;DHT22;19894;48.452;11.494;2023-04-24T03:44:34;19.10;52.10
33564;DHT22;19894;48.452;11.494;2023-04-24T03:47:00;19.00;52.00
33564;DHT22;19894;48.452;11.494;2023-04-24T03:49:25;19.00;52.00
33564;DHT22;19894;48.452;11.494;2023-04-24T03:51:51;19.00;52.00
33564;DHT22;19894;48.452;11.494;2023-04-24T03:54:20;19.00;52.00
33564;DHT22;19894;48.452;11.494;2023-04-24T03:56:46;19.00;51.90
33564;DHT22;19894;48.452;11.494;2023-04-24T03:59:12;19.00;51.90
33564;DHT22;19894;48.452;11.494;2023-04-24T04:01:38;19.00;51.90
33564;DHT22;19894;48.452;11.494;2023-04-24T04:04:08;19.00;51.90
33564;DHT22;19894;48.452;11.494;2023-04-24T04:06:33;19.00;51.90
33564;DHT22;19894;48.452;11.494;2023-04-24T04:08:59;19.00;51.80
33564;DHT22;19894;48.452;11.494;2023-04-24T04:11:26;19.00;51.90
33564;DHT22;19894;48.452;11.494;2023-04-24T04:13:52;19.00;51.80
33564;DHT22;19894;48.452;11.494;2023-04-24T04:16:17;19.00;51.90
33564;DHT22;19894;48.452;11.494;2023-04-24T04:18:43;19.00;52.00
33564;DHT22;19894;48.452;11.494;2023-04-24T04:21:09;19.00;52.00
33564;DHT22;19894;48.452;11.494;2023-04-24T04:23:35;19.00;52.00
33564;DHT22;19894;48.452;11.494;2023-04-24T04:26:01;19.00;52.00
33564;DHT22;19894;48.452;11.494;2023-04-24T04:28:27;19.00;51.90
33564;DHT22;19894;48.452;11.494;2023-04-24T04:30:52;19.00;52.00
33564;DHT22;19894;48.452;11.494;2023-04-24T04:33:20;19.00;51.90
33564;DHT22;19894;48.452;11.494;2023-04-24T04:35:46;19.10;51.90
33564;DHT22;19894;48.452;11.494;2023-04-24T04:38:14;19.10;52.00
33564;DHT22;19894;48.452;11.494;2023-04-24T04:40:40;19.10;51.90
33564;DHT22;19894;48.452;11.494;2023-04-24T04:43:06;19.00;51.90
33564;DHT22;19894;48.452;11.494;2023-04-24T04:45:31;19.10;51.90
33564;DHT22;19894;48.452;11.494;2023-04-24T04:47:59;19.00;51.80
33564;DHT22;19894;48.452;11.494;2023-04-24T04:50:26;19.00;51.80
33564;DHT22;19894;48.452;11.494;2023-04-24T04:52:52;19.00;51.80
33564;DHT22;19894;48.452;11.494;2023-04-24T04:55:18;19.00;51.70
33564;DHT22;19894;48.452;11.494;2023-04-24T04:57:45;19.00;51.70
33564;DHT22;19894;48.452;11.494;2023-04-24T05:00:11;19.00;51.80
33564;DHT22;19894;48.452;11.494;2023-04-24T05:02:38;19.00;51.70
33564;DHT22;19894;48.452;11.494;2023-04-24T05:05:05;19.00;51.70
33564;DHT22;19894;48.452;11.494;2023-04-24T05:07:31;19.00;51.70
33564;DHT22;19894;48.452;11.494;2023-04-24T05:09:57;19.00;51.70
33564;DHT22;19894;48.452;11.494;2023-04-24T05:12:22;19.00;51.60
33564;DHT22;19894;48.452;11.494;2023-04-24T05:14:48;19.00;51.60
33564;DHT22;19894;48.452;11.494;2023-04-24T05:17:13;19.00;51.60
33564;DHT22;19894;48.452;11.494;2023-04-24T05:19:39;19.00;51.60
33564;DHT22;19894;48.452;11.494;2023-04-24T05:22:04;19.00;51.70
33564;DHT22;19894;48.452;11.494;2023-04-24T05:24:34;19.00;51.80
33564;DHT22;19894;48.452;11.494;2023-04-24T05:27:00;19.00;51.70
33564;DHT22;19894;48.452;11.494;2023-04-24T05:29:28;19.00;51.70
33564;DHT22;19894;48.452;11.494;2023-04-24T05:31:56;19.00;51.70
33564;DHT22;19894;48.452;11.494;2023-04-24T05:34:21;19.00;51.70
33564;DHT22;19894;48.452;11.494;2023-04-24T05:36:47;19.00;51.70
33564;DHT22;19894;48.452;11.494;2023-04-24T05:39:13;19.00;51.60
33564;DHT22;19894;48.452;11.494;2023-04-24T05:41:39;19.00;51.60
33564;DHT22;19894;48.452;11.494;2023-04-24T05:44:05;19.00;51.60
33564;DHT22;19894;48.452;11.494;2023-04-24T05:46:30;19.00;51.50
33564;DHT22;19894;48.452;11.494;2023-04-24T05:48:56;19.00;51.50
33564;DHT22;19894;48.452;11.494;2023-04-24T05:51:21;19.00;51.50
33564;DHT22;19894;48.452;11.494;2023-04-24T05:53:47;19.00;51.50
33564;DHT22;19894;48.452;11.494;2023-04-24T05:56:12;19.00;51.50
33564;DHT22;19894;48.452;11.494;2023-04-24T05:58:38;19.00;51.50
33564;DHT22;19894;48.452;11.494;2023-04-24T06:01:04;19.00;51.50
33564;DHT22;19894;48.452;11.494;2023-04-24T06:03:31;19.00;51.50
33564;DHT22;19894;48.452;11.494;2023-04-24T06:05:57;19.00;51.50
33564;DHT22;19894;48.452;11.494;2023-04-24T06:08:22;19.00;51.50
33564;DHT22;19894;48.452;11.494;2023-04-24T06:10:48;19.00;51.40
33564;DHT22;19894;48.452;11.494;2023-04-24T06:13:13;19.00;51.40
33564;DHT22;19894;48.452;11.494;2023-04-24T06:15:39;19.00;51.40
33564;DHT22;19894;48.452;11.494;2023-04-24T06:18:06;19.00;51.40
33564;DHT22;19894;48.452;11.494;2023-04-24T06:20:31;19.00;51.50
33564;DHT22;19894;48.452;11.494;2023-04-24T06:22:57;19.00;51.50
33564;DHT22;19894;48.452;11.494;2023-04-24T06:25:25;19.00;51.50
33564;DHT22;19894;48.452;11.494;2023-04-24T06:27:51;19.00;51.60
33564;DHT22;19894;48.452;11.494;2023-04-24T06:30:16;19.00;51.70
33564;DHT22;19894;48.452;11.494;2023-04-24T06:32:42;19.00;51.60
33564;DHT22;19894;48.452;11.494;2023-04-24T06:35:08;19.00;51.60
33564;DHT22;19894;48.452;11.494;2023-04-24T06:37:35;19.00;51.60
33564;DHT22;19894;48.452;11.494;2023-04-24T06:40:00;19.00;51.60
33564;DHT22;19894;48.452;11.494;2023-04-24T06:42:26;19.00;51.60
33564;DHT22;19894;48.452;11.494;2023-04-24T06:44:52;19.00;51.60
33564;DHT22;19894;48.452;11.494;2023-04-24T06:47:17;19.00;51.60
33564;DHT22;19894;48.452;11.494;2023-04-24T06:49:44;19.00;51.50
33564;DHT22;19894;48.452;11.494;2023-04-24T06:52:09;19.00;51.50
33564;DHT22;19894;48.452;11.494;2023-04-24T06:54:35;19.10;51.50
33564;DHT22;19894;48.452;11.494;2023-04-24T06:57:00;19.00;51.40
33564;DHT22;19894;48.452;11.494;2023-04-24T06:59:27;19.00;51.40
33564;DHT22;19894;48.452;11.494;2023-04-24T07:01:54;19.00;51.40
33564;DHT22;19894;48.452;11.494;2023-04-24T07:04:19;19.00;51.40
33564;DHT22;19894;48.452;11.494;2023-04-24T07:06:45;19.00;51.40
33564;DHT22;19894;48.452;11.494;2023-04-24T07:09:11;19.00;51.40
33564;DHT22;19894;48.452;11.494;2023-04-24T07:11:38;19.00;51.30
33564;DHT22;19894;48.452;11.494;2023-04-24T07:14:06;19.00;51.30
33564;DHT22;19894;48.452;11.494;2023-04-24T07:16:32;19.00;51.30
33564;DHT22;19894;48.452;11.494;2023-04-24T07:18:57;19.00;51.30
33564;DHT22;19894;48.452;11.494;2023-04-24T07:21:23;19.00;51.30
33564;DHT22;19894;48.452;11.494;2023-04-24T07:23:48;19.00;51.20
33564;DHT22;19894;48.452;11.494;2023-04-24T07:26:14;19.00;51.20
33564;DHT22;19894;48.452;11.494;2023-04-24T07:28:40;19.00;51.30
33564;DHT22;19894;48.452;11.494;2023-04-24T07:31:07;19.00;51.40
33564;DHT22;19894;48.452;11.494;2023-04-24T07:33:33;19.00;51.40
33564;DHT22;19894;48.452;11.494;2023-04-24T07:35:59;19.00;51.40
33564;DHT22;19894;48.452;11.494;2023-04-24T07:38:25;19.00;51.40
33564;DHT22;19894;48.452;11.494;2023-04-24T07:40:51;19.00;51.40
33564;DHT22;19894;48.452;11.494;2023-04-24T07:43:17;19.00;51.40
33564;DHT22;19894;48.452;11.494;2023-04-24T07:45:43;19.00;51.40
33564;DHT22;19894;48.452;11.494;2023-04-24T07:48:08;19.00;51.30
33564;DHT22;19894;48.452;11.494;2023-04-24T07:50:34;19.00;51.30
33564;DHT22;19894;48.452;11.494;2023-04-24T07:53:01;19.00;51.30
33564;DHT22;19894;48.452;11.494;2023-04-24T07:55:27;19.00;51.30
33564;DHT22;19894;48.452;11.494;2023-04-24T07:57:52;19.00;51.30
33564;DHT22;19894;48.452;11.494;2023-04-24T08:00:18;19.00;51.20
33564;DHT22;19894;48.452;11.494;2023-04-24T08:02:44;19.00;51.20
33564;DHT22;19894;48.452;11.494;2023-04-24T08:05:09;19.00;51.20
33564;DHT22;19894;48.452;11.494;2023-04-24T08:07:35;19.00;51.20
33564;DHT22;19894;48.452;11.494;2023-04-24T08:10:01;19.00;51.10
33564;DHT22;19894;48.452;11.494;2023-04-24T08:12:29;19.00;51.10
33564;DHT22;19894;48.452;11.494;2023-04-24T08:14:54;19.00;51.10
33564;DHT22;19894;48.452;11.494;2023-04-24T08:17:20;19.00;51.10
33564;DHT22;19894;48.452;11.494;2023-04-24T08:19:46;19.00;51.00
33564;DHT22;19894;48.452;11.494;2023-04-24T08:22:16;19.00;50.80
33564;DHT22;19894;48.452;11.494;2023-04-24T08:24:42;19.00;50.70
33564;DHT22;19894;48.452;11.494;2023-04-24T08:27:08;19.00;50.40
33564;DHT22;19894;48.452;11.494;2023-04-24T08:29:34;19.00;50.20
33564;DHT22;19894;48.452;11.494;2023-04-24T08:31:59;19.00;50.00
33564;DHT22;19894;48.452;11.494;2023-04-24T08:34:25;19.00;50.00
33564;DHT22;19894;48.452;11.494;2023-04-24T08:36:50;19.00;50.00
33564;DHT22;19894;48.452;11.494;2023-04-24T08:39:17;18.90;49.90
33564;DHT22;19894;48.452;11.494;2023-04-24T08:41:43;18.90;49.90
33564;DHT22;19894;48.452;11.494;2023-04-24T08:44:09;19.00;50.50
33564;DHT22;19894;48.452;11.494;2023-04-24T08:46:35;19.00;49.90
33564;DHT22;19894;48.452;11.494;2023-04-24T08:49:02;19.00;49.90
33564;DHT22;19894;48.452;11.494;2023-04-24T08:51:29;19.00;49.90
33564;DHT22;19894;48.452;11.494;2023-04-24T08:53:57;19.00;49.90
33564;DHT22;19894;48.452;11.494;2023-04-24T08:56:24;19.00;49.80
33564;DHT22;19894;48.452;11.494;2023-04-24T08:58:53;19.00;49.90
33564;DHT22;19894;48.452;11.494;2023-04-24T09:01:23;19.00;49.90
33564;DHT22;19894;48.452;11.494;2023-04-24T09:03:50;19.00;49.90
33564;DHT22;19894;48.452;11.494;2023-04-24T09:06:18;19.00;49.80
33564;DHT22;19894;48.452;11.494;2023-04-24T09:08:45;19.00;49.70
33564;DHT22;19894;48.452;11.494;2023-04-24T09:11:11;19.00;49.70
33564;DHT22;19894;48.452;11.494;2023-04-24T09:13:37;19.00;49.70
33564;DHT22;19894;48.452;11.494;2023-04-24T09:16:03;19.00;49.70
33564;DHT22;19894;48.452;11.494;2023-04-24T09:18:29;19.00;49.70
33564;DHT22;19894;48.452;11.494;2023-04-24T09:20:59;19.00;49.70
33564;DHT22;19894;48.452;11.494;2023-04-24T09:23:27;19.00;49.70
33564;DHT22;19894;48.452;11.494;2023-04-24T09:25:57;18.90;49.70
33564;DHT22;19894;48.452;11.494;2023-04-24T09:28:40;19.00;49.80
33564;DHT22;19894;48.452;11.494;2023-04-24T09:31:14;18.90;49.70
33564;DHT22;19894;48.452;11.494;2023-04-24T09:33:59;18.90;49.70
33564;DHT22;19894;48.452;11.494;2023-04-24T09:36:29;18.90;49.70
33564;DHT22;19894;48.452;11.494;2023-04-24T09:39:01;18.90;49.60
33564;DHT22;19894;48.452;11.494;2023-04-24T09:41:27;18.90;49.60
33564;DHT22;19894;48.452;11.494;2023-04-24T09:43:55;18.90;49.50
33564;DHT22;19894;48.452;11.494;2023-04-24T09:46:21;18.90;49.50
33564;DHT22;19894;48.452;11.494;2023-04-24T09:48:47;19.00;49.50
33564;DHT22;19894;48.452;11.494;2023-04-24T09:51:13;19.00;49.40
33564;DHT22;19894;48.452;11.494;2023-04-24T09:53:45;19.00;49.40
33564;DHT22;19894;48.452;11.494;2023-04-24T09:56:11;19.00;49.40
33564;DHT22;19894;48.452;11.494;2023-04-24T09:58:40;19.00;49.30
33564;DHT22;19894;48.452;11.494;2023-04-24T10:01:05;19.00;49.30
33564;DHT22;19894;48.452;11.494;2023-04-24T10:03:33;19.00;49.30
33564;DHT22;19894;48.452;11.494;2023-04-24T10:05:59;19.00;49.20
33564;DHT22;19894;48.452;11.494;2023-04-24T10:08:25;19.00;49.30
33564;DHT22;19894;48.452;11.494;2023-04-24T10:10:52;19.00;49.30
33564;DHT22;19894;48.452;11.494;2023-04-24T10:13:18;19.00;49.30
33564;DHT22;19894;48.452;11.494;2023-04-24T10:15:44;19.00;49.30
33564;DHT22;19894;48.452;11.494;2023-04-24T10:18:11;18.90;49.30
33564;DHT22;19894;48.452;11.494;2023-04-24T10:20:39;19.00;49.40
33564;DHT22;19894;48.452;11.494;2023-04-24T10:23:05;18.90;49.30
33564;DHT22;19894;48.452;11.494;2023-04-24T10:25:34;18.90;49.30
33564;DHT22;19894;48.452;11.494;2023-04-24T10:28:01;19.00;49.30
33564;DHT22;19894;48.452;11.494;2023-04-24T10:30:29;18.90;49.30
33564;DHT22;19894;48.452;11.494;2023-04-24T10:32:55;19.00;49.40
33564;DHT22;19894;48.452;11.494;2023-04-24T10:35:22;18.90;49.30
33564;DHT22;19894;48.452;11.494;2023-04-24T10:37:56;18.90;49.20
33564;DHT22;19894;48.452;11.494;2023-04-24T10:40:27;18.90;49.10
33564;DHT22;19894;48.452;11.494;2023-04-24T10:42:56;18.90;49.50
33564;DHT22;19894;48.452;11.494;2023-04-24T10:45:22;18.90;48.90
33564;DHT22;19894;48.452;11.494;2023-04-24T10:48:02;18.90;48.90
33564;DHT22;19894;48.452;11.494;2023-04-24T10:50:34;18.90;48.80
33564;DHT22;19894;48.452;11.494;2023-04-24T10:53:11;18.90;48.90
33564;DHT22;19894;48.452;11.494;2023-04-24T10:55:42;18.90;48.80
33564;DHT22;19894;48.452;11.494;2023-04-24T10:58:09;19.00;48.90
33564;DHT22;19894;48.452;11.494;2023-04-24T11:00:37;19.00;48.90
33564;DHT22;19894;48.452;11.494;2023-04-24T11:03:22;19.00;48.90
33564;DHT22;19894;48.452;11.494;2023-04-24T11:05:55;19.00;48.90
33564;DHT22;19894;48.452;11.494;2023-04-24T11:11:03;19.00;49.40
33564;DHT22;19894;48.452;11.494;2023-04-24T11:16:38;19.00;48.90
33564;DHT22;19894;48.452;11.494;2023-04-24T11:21:43;19.00;49.00
33564;DHT22;19894;48.452;11.494;2023-04-24T11:30:02;19.00;49.10
33564;DHT22;19894;48.452;11.494;2023-04-24T11:32:27;18.90;49.10
33564;DHT22;19894;48.452;11.494;2023-04-24T11:35:17;18.90;49.10
33564;DHT22;19894;48.452;11.494;2023-04-24T11:37:51;18.90;49.20
33564;DHT22;19894;48.452;11.494;2023-04-24T11:40:18;18.90;49.20
33564;DHT22;19894;48.452;11.494;2023-04-24T11:42:52;18.90;49.30
33564;DHT22;19894;48.452;11.494;2023-04-24T11:45:25;18.90;49.30
33564;DHT22;19894;48.452;11.494;2023-04-24T11:47:51;18.90;49.30
33564;DHT22;19894;48.452;11.494;2023-04-24T11:50:18;18.90;49.40
33564;DHT22;19894;48.452;11.494;2023-04-24T11:52:46;18.90;49.40
33564;DHT22;19894;48.452;11.494;2023-04-24T11:57:42;19.00;49.40
33564;DHT22;19894;48.452;11.494;2023-04-24T12:02:40;19.00;49.40
33564;DHT22;19894;48.452;11.494;2023-04-24T12:05:06;19.00;49.50
33564;DHT22;19894;48.452;11.494;2023-04-24T12:07:40;19.00;49.50
33564;DHT22;19894;48.452;11.494;2023-04-24T12:10:08;19.00;49.50
33564;DHT22;19894;48.452;11.494;2023-04-24T12:12:34;19.00;49.50
33564;DHT22;19894;48.452;11.494;2023-04-24T12:15:01;19.00;49.50
33564;DHT22;19894;48.452;11.494;2023-04-24T12:17:31;19.00;49.40
33564;DHT22;19894;48.452;11.494;2023-04-24T12:20:00;19.00;49.30
33564;DHT22;19894;48.452;11.494;2023-04-24T12:22:27;19.00;49.30
33564;DHT22;19894;48.452;11.494;2023-04-24T12:25:01;19.00;49.40
33564;DHT22;19894;48.452;11.494;2023-04-24T12:27:30;19.00;49.40
33564;DHT22;19894;48.452;11.494;2023-04-24T12:29:58;19.00;49.30
33564;DHT22;19894;48.452;11.494;2023-04-24T12:32:24;18.90;49.20
33564;DHT22;19894;48.452;11.494;2023-04-24T12:34:53;18.90;49.10
33564;DHT22;19894;48.452;11.494;2023-04-24T12:37:19;18.90;49.00
33564;DHT22;19894;48.452;11.494;2023-04-24T12:40:08;18.90;49.00
33564;DHT22;19894;48.452;11.494;2023-04-24T12:42:35;18.90;49.00
33564;DHT22;19894;48.452;11.494;2023-04-24T12:45:05;18.90;49.00
33564;DHT22;19894;48.452;11.494;2023-04-24T12:47:32;18.90;48.80
33564;DHT22;19894;48.452;11.494;2023-04-24T12:49:58;18.90;48.80
33564;DHT22;19894;48.452;11.494;2023-04-24T12:52:24;18.90;48.70
33564;DHT22;19894;48.452;11.494;2023-04-24T12:54:53;18.90;48.70
33564;DHT22;19894;48.452;11.494;2023-04-24T12:57:19;18.90;48.50
33564;DHT22;19894;48.452;11.494;2023-04-24T12:59:44;18.90;48.40
33564;DHT22;19894;48.452;11.494;2023-04-24T13:02:11;19.00;48.40
33564;DHT22;19894;48.452;11.494;2023-04-24T13:04:36;19.00;48.10
33564;DHT22;19894;48.452;11.494;2023-04-24T13:07:02;18.90;48.00
33564;DHT22;19894;48.452;11.494;2023-04-24T13:09:28;19.00;48.00
33564;DHT22;19894;48.452;11.494;2023-04-24T13:11:54;19.00;47.80
33564;DHT22;19894;48.452;11.494;2023-04-24T13:14:19;19.00;47.90
33564;DHT22;19894;48.452;11.494;2023-04-24T13:16:45;19.00;47.80
33564;DHT22;19894;48.452;11.494;2023-04-24T13:19:11;19.00;47.80
33564;DHT22;19894;48.452;11.494;2023-04-24T13:21:36;19.00;47.90
33564;DHT22;19894;48.452;11.494;2023-04-24T13:24:02;19.00;48.00
33564;DHT22;19894;48.452;11.494;2023-04-24T13:26:30;19.00;48.00
33564;DHT22;19894;48.452;11.494;2023-04-24T13:28:55;18.90;47.80
33564;DHT22;19894;48.452;11.494;2023-04-24T13:31:21;19.00;47.90
33564;DHT22;19894;48.452;11.494;2023-04-24T13:33:47;18.90;47.80
33564;DHT22;19894;48.452;11.494;2023-04-24T13:36:13;18.90;47.60
33564;DHT22;19894;48.452;11.494;2023-04-24T13:38:38;19.00;47.60
33564;DHT22;19894;48.452;11.494;2023-04-24T13:41:04;18.90;47.60
33564;DHT22;19894;48.452;11.494;2023-04-24T13:43:29;18.90;47.80
33564;DHT22;19894;48.452;11.494;2023-04-24T13:45:55;18.90;47.80
33564;DHT22;19894;48.452;11.494;2023-04-24T13:48:20;18.90;47.80
33564;DHT22;19894;48.452;11.494;2023-04-24T13:50:46;18.90;47.70
33564;DHT22;19894;48.452;11.494;2023-04-24T13:53:13;18.90;47.60
33564;DHT22;19894;48.452;11.494;2023-04-24T13:55:39;18.90;46.90
33564;DHT22;19894;48.452;11.494;2023-04-24T13:58:05;18.90;46.90
33564;DHT22;19894;48.452;11.494;2023-04-24T14:00:31;18.90;46.70
33564;DHT22;19894;48.452;11.494;2023-04-24T14:02:57;18.90;46.50
33564;DHT22;19894;48.452;11.494;2023-04-24T14:05:22;18.90;46.60
33564;DHT22;19894;48.452;11.494;2023-04-24T14:07:48;18.90;46.60
33564;DHT22;19894;48.452;11.494;2023-04-24T14:10:14;18.90;46.50
33564;DHT22;19894;48.452;11.494;2023-04-24T14:12:39;18.90;46.50
33564;DHT22;19894;48.452;11.494;2023-04-24T14:15:05;18.90;46.50
33564;DHT22;19894;48.452;11.494;2023-04-24T14:17:31;18.90;46.50
33564;DHT22;19894;48.452;11.494;2023-04-24T14:19:57;18.90;46.40
33564;DHT22;19894;48.452;11.494;2023-04-24T14:22:25;19.00;46.40
33564;DHT22;19894;48.452;11.494;2023-04-24T14:24:50;19.00;46.50
33564;DHT22;19894;48.452;11.494;2023-04-24T14:27:16;18.90;46.40
33564;DHT22;19894;48.452;11.494;2023-04-24T14:29:42;18.90;46.50
33564;DHT22;19894;48.452;11.494;2023-04-24T14:32:07;18.90;46.70
33564;DHT22;19894;48.452;11.494;2023-04-24T14:34:34;18.90;46.80
33564;DHT22;19894;48.452;11.494;2023-04-24T14:37:00;18.90;46.60
33564;DHT22;19894;48.452;11.494;2023-04-24T14:39:25;18.90;46.70
33564;DHT22;19894;48.452;11.494;2023-04-24T14:41:51;18.90;46.80
33564;DHT22;19894;48.452;11.494;2023-04-24T14:44:17;18.90;46.80
33564;DHT22;19894;48.452;11.494;2023-04-24T14:46:42;18.90;46.80
33564;DHT22;19894;48.452;11.494;2023-04-24T14:49:08;18.90;46.80
33564;DHT22;19894;48.452;11.494;2023-04-24T14:51:35;18.90;46.70
33564;DHT22;19894;48.452;11.494;2023-04-24T14:54:01;18.90;46.70
33564;DHT22;19894;48.452;11.494;2023-04-24T14:56:27;18.90;45.70
33564;DHT22;19894;48.452;11.494;2023-04-24T14:58:52;18.90;46.10
33564;DHT22;19894;48.452;11.494;2023-04-24T15:01:18;18.90;45.70
33564;DHT22;19894;48.452;11.494;2023-04-24T15:03:44;18.90;45.60
33564;DHT22;19894;48.452;11.494;2023-04-24T15:06:09;18.90;45.20
33564;DHT22;19894;48.452;11.494;2023-04-24T15:08:35;18.90;45.30
33564;DHT22;19894;48.452;11.494;2023-04-24T15:11:01;18.90;45.30
33564;DHT22;19894;48.452;11.494;2023-04-24T15:13:26;18.90;45.30
33564;DHT22;19894;48.452;11.494;2023-04-24T15:15:52;18.90;45.20
33564;DHT22;19894;48.452;11.494;2023-04-24T15:18:18;18.90;45.10
33564;DHT22;19894;48.452;11.494;2023-04-24T15:20:43;18.90;45.10
33564;DHT22;19894;48.452;11.494;2023-04-24T15:23:09;18.90;45.10
33564;DHT22;19894;48.452;11.494;2023-04-24T15:25:35;18.90;45.00
33564;DHT22;19894;48.452;11.494;2023-04-24T15:28:00;18.90;45.20
33564;DHT22;19894;48.452;11.494;2023-04-24T15:30:27;18.90;45.40